Time;durP1;ratioP1;P1;durP2;ratioP2;P2;SDS_P1;SDS_P2;PMS_P1;PMS_P2;Temp;Humidity;BMP_temperature;BMP_pressure;BME280_temperature;BME280_humidity;BME280_pressure;Samples;Min_cycle;Max_cycle;Signal;HPM_P1;HPM_P2
2021/09/13 00:01:34;;;;;;;19.85;16.42;;;;;;;;;;5036268;28;20025;-56
2021/09/13 00:04:00;;;;;;;20.55;16.42;;;;;;;;;;5035051;28;20048;-55
2021/09/13 00:06:26;;;;;;;21.90;16.75;;;;;;;;;;5034273;28;20532;-56
2021/09/13 00:08:52;;;;;;;21.05;16.35;;;;;;;;;;5035317;28;20037;-55
2021/09/13 00:11:18;;;;;;;19.17;15.45;;;;;;;;;;5035922;28;20156;-57
2021/09/13 00:13:44;;;;;;;20.13;15.95;;;;;;;;;;5041403;28;20028;-55
2021/09/13 00:16:10;;;;;;;19.88;15.20;;;;;;;;;;5035938;28;20528;-57
2021/09/13 00:18:36;;;;;;;18.50;14.80;;;;;;;;;;5033634;28;20025;-54
2021/09/13 00:21:02;;;;;;;17.85;14.27;;;;;;;;;;5035017;28;20063;-56
2021/09/13 00:23:28;;;;;;;17.80;14.85;;;;;;;;;;5034181;28;20025;-55
2021/09/13 00:25:54;;;;;;;19.17;15.38;;;;;;;;;;5040882;28;20045;-57
2021/09/13 00:28:20;;;;;;;18.95;14.95;;;;;;;;;;5035451;28;20048;-55
2021/09/13 00:30:46;;;;;;;18.58;15.23;;;;;;;;;;5033022;28;20064;-52
2021/09/13 00:33:12;;;;;;;18.13;15.82;;;;;;;;;;5034907;28;20021;-56
2021/09/13 00:35:39;;;;;;;21.75;16.30;;;;;;;;;;5035174;28;20470;-55
2021/09/13 00:38:05;;;;;;;23.38;16.40;;;;;;;;;;5035254;28;20022;-56
2021/09/13 00:40:31;;;;;;;23.30;16.15;;;;;;;;;;5034722;28;20086;-57
2021/09/13 00:42:57;;;;;;;21.48;16.80;;;;;;;;;;5033437;28;20021;-57
2021/09/13 00:45:23;;;;;;;21.23;15.43;;;;;;;;;;5034174;28;20542;-56
2021/09/13 00:47:49;;;;;;;20.58;16.70;;;;;;;;;;5035000;28;20156;-55
2021/09/13 00:50:15;;;;;;;21.77;16.27;;;;;;;;;;5033028;28;20389;-57
2021/09/13 00:52:44;;;;;;;17.88;15.23;;;;;;;;;;5034651;28;20064;-57
2021/09/13 00:55:10;;;;;;;18.67;15.77;;;;;;;;;;5035012;28;20369;-56
2021/09/13 00:57:36;;;;;;;21.67;16.30;;;;;;;;;;5032961;28;20025;-57
2021/09/13 01:00:02;;;;;;;20.27;15.68;;;;;;;;;;5034773;28;20451;-56
2021/09/13 01:02:28;;;;;;;21.88;15.73;;;;;;;;;;5033648;28;20021;-56
2021/09/13 01:04:54;;;;;;;20.35;15.85;;;;;;;;;;5034164;28;20508;-55
2021/09/13 01:07:20;;;;;;;16.98;13.93;;;;;;;;;;5034708;28;20021;-57
2021/09/13 01:09:46;;;;;;;18.17;15.35;;;;;;;;;;5032857;28;20564;-55
2021/09/13 01:12:12;;;;;;;18.88;14.05;;;;;;;;;;5034591;28;20100;-56
2021/09/13 01:14:40;;;;;;;19.15;14.73;;;;;;;;;;5034646;28;20647;-55
2021/09/13 01:17:07;;;;;;;20.10;15.90;;;;;;;;;;5034158;28;20030;-56
2021/09/13 01:19:33;;;;;;;18.75;15.40;;;;;;;;;;5034113;28;20079;-56
2021/09/13 01:22:01;;;;;;;19.13;15.23;;;;;;;;;;5033340;28;20030;-57
2021/09/13 01:24:28;;;;;;;19.48;15.65;;;;;;;;;;5031920;28;20120;-56
2021/09/13 01:26:57;;;;;;;20.70;16.00;;;;;;;;;;5034458;28;20079;-56
2021/09/13 01:29:23;;;;;;;18.83;15.23;;;;;;;;;;5031961;28;20049;-55
2021/09/13 01:31:49;;;;;;;20.60;15.57;;;;;;;;;;5034493;28;20032;-56
2021/09/13 01:34:16;;;;;;;19.83;15.30;;;;;;;;;;5034231;28;20452;-55
2021/09/13 01:36:42;;;;;;;18.65;15.55;;;;;;;;;;5032038;28;20049;-56
2021/09/13 01:39:08;;;;;;;17.63;14.18;;;;;;;;;;5034353;28;20044;-55
2021/09/13 01:41:34;;;;;;;18.50;14.82;;;;;;;;;;5032092;28;20033;-54
2021/09/13 01:44:00;;;;;;;19.40;15.35;;;;;;;;;;5034292;28;20028;-57
2021/09/13 01:46:26;;;;;;;18.67;15.48;;;;;;;;;;5034255;28;20028;-56
2021/09/13 01:48:52;;;;;;;17.88;15.13;;;;;;;;;;5031588;28;20068;-55
2021/09/13 01:51:18;;;;;;;19.92;15.45;;;;;;;;;;5029662;28;20061;-56
2021/09/13 01:53:46;;;;;;;19.52;15.70;;;;;;;;;;5033260;28;20033;-56
2021/09/13 01:56:12;;;;;;;;;;;;;;;;;;5034552;28;20032;-56
2021/09/13 01:58:38;;;;;;;19.17;15.38;;;;;;;;;;5034190;28;19909;-54
2021/09/13 02:01:04;;;;;;;22.00;15.82;;;;;;;;;;5033234;28;20036;-57
2021/09/13 02:03:30;;;;;;;19.48;16.10;;;;;;;;;;5032095;28;20029;-55
2021/09/13 02:05:56;;;;;;;17.90;15.77;;;;;;;;;;5033651;28;20042;-56
2021/09/13 02:08:22;;;;;;;20.40;16.80;;;;;;;;;;5037128;28;20140;-57
2021/09/13 02:10:49;;;;;;;20.48;16.13;;;;;;;;;;5033329;28;20397;-57
2021/09/13 02:13:15;;;;;;;19.77;15.77;;;;;;;;;;5033799;28;20025;-56
2021/09/13 02:15:41;;;;;;;18.92;15.73;;;;;;;;;;5031273;28;20032;-56
2021/09/13 02:18:07;;;;;;;18.55;15.02;;;;;;;;;;5033914;28;20093;-56
2021/09/13 02:20:34;;;;;;;21.52;16.00;;;;;;;;;;5032197;28;20101;-56
2021/09/13 02:22:59;;;;;;;20.40;16.25;;;;;;;;;;5033832;28;20112;-56
2021/09/13 02:25:25;;;;;;;23.25;17.30;;;;;;;;;;5033477;28;20139;-56
2021/09/13 02:27:51;;;;;;;21.92;16.38;;;;;;;;;;5031670;28;20045;-56
2021/09/13 02:30:17;;;;;;;24.98;16.25;;;;;;;;;;5029572;28;20041;-56
2021/09/13 02:32:43;;;;;;;21.88;16.85;;;;;;;;;;5033508;28;20037;-56
2021/09/13 02:35:09;;;;;;;20.63;15.35;;;;;;;;;;5033394;28;20029;-57
2021/09/13 02:37:36;;;;;;;19.35;15.82;;;;;;;;;;5033462;28;20097;-55
2021/09/13 02:40:03;;;;;;;20.42;16.65;;;;;;;;;;5032883;28;20071;-57
2021/09/13 02:42:29;;;;;;;21.17;16.20;;;;;;;;;;5032277;28;20029;-56
2021/09/13 02:44:55;;;;;;;21.25;15.55;;;;;;;;;;5033352;28;20079;-57
2021/09/13 02:47:21;;;;;;;21.13;16.88;;;;;;;;;;5031688;28;20065;-56
2021/09/13 02:49:47;;;;;;;18.90;15.68;;;;;;;;;;5033546;28;20049;-55
2021/09/13 02:52:13;;;;;;;19.65;16.58;;;;;;;;;;5033698;28;20036;-56
2021/09/13 02:54:39;;;;;;;24.02;16.58;;;;;;;;;;5031035;28;20545;-57
2021/09/13 02:57:05;;;;;;;24.80;17.20;;;;;;;;;;5033449;28;20056;-56
2021/09/13 02:59:31;;;;;;;19.88;16.45;;;;;;;;;;5032065;28;20469;-57
2021/09/13 03:01:57;;;;;;;22.55;16.17;;;;;;;;;;5033242;28;20030;-55
2021/09/13 03:04:23;;;;;;;20.58;16.75;;;;;;;;;;5034883;28;20020;-57
2021/09/13 03:06:51;;;;;;;23.02;17.17;;;;;;;;;;5033682;28;20567;-55
2021/09/13 03:09:17;;;;;;;21.15;15.70;;;;;;;;;;5036710;28;20037;-58
2021/09/13 03:11:43;;;;;;;20.58;15.02;;;;;;;;;;5036945;28;20480;-55
2021/09/13 03:14:09;;;;;;;18.42;15.05;;;;;;;;;;5036952;28;20106;-55
2021/09/13 03:16:35;;;;;;;19.08;15.25;;;;;;;;;;5036588;28;20021;-56
2021/09/13 03:19:01;;;;;;;17.00;14.65;;;;;;;;;;5035645;28;20029;-57
2021/09/13 03:21:27;;;;;;;19.88;16.20;;;;;;;;;;5035197;28;20068;-55
2021/09/13 03:23:54;;;;;;;20.63;14.77;;;;;;;;;;5036856;28;20048;-57
2021/09/13 03:26:20;;;;;;;20.13;15.07;;;;;;;;;;5035254;28;20079;-56
2021/09/13 03:28:46;;;;;;;16.98;14.32;;;;;;;;;;5036429;28;20053;-56
2021/09/13 03:31:12;;;;;;;20.38;15.30;;;;;;;;;;5036611;28;20033;-56
2021/09/13 03:33:38;;;;;;;18.10;14.88;;;;;;;;;;5033544;28;20063;-56
2021/09/13 03:36:04;;;;;;;19.58;15.38;;;;;;;;;;5036670;28;20038;-56
2021/09/13 03:38:32;;;;;;;20.10;15.07;;;;;;;;;;5034152;28;20025;-57
2021/09/13 03:40:58;;;;;;;18.50;14.50;;;;;;;;;;5036057;28;20408;-57
2021/09/13 03:43:24;;;;;;;19.35;16.00;;;;;;;;;;5035767;28;20029;-57
2021/09/13 03:45:50;;;;;;;19.98;16.55;;;;;;;;;;5033444;28;20025;-57
2021/09/13 03:48:16;;;;;;;20.52;16.88;;;;;;;;;;5035272;28;20029;-56
2021/09/13 03:50:42;;;;;;;22.15;17.67;;;;;;;;;;5036277;28;20130;-56
2021/09/13 03:53:09;;;;;;;19.50;16.77;;;;;;;;;;5036015;28;20069;-70
2021/09/13 03:55:36;;;;;;;21.08;17.38;;;;;;;;;;5036323;28;20044;-70
2021/09/13 03:58:03;;;;;;;21.13;16.38;;;;;;;;;;5035212;28;20041;-61
2021/09/13 04:00:29;;;;;;;21.77;16.80;;;;;;;;;;5033992;28;20029;-61
2021/09/13 04:02:55;;;;;;;20.38;16.50;;;;;;;;;;5035472;28;20035;-62
2021/09/13 04:05:24;;;;;;;21.55;17.02;;;;;;;;;;5034554;28;20022;-61
2021/09/13 04:10:24;;;;;;;19.15;16.05;;;;;;;;;;5035172;28;20041;-61
2021/09/13 04:12:50;;;;;;;21.95;17.13;;;;;;;;;;5032555;28;20013;-62
2021/09/13 04:15:16;;;;;;;20.38;17.17;;;;;;;;;;5034535;28;20427;-61
2021/09/13 04:17:42;;;;;;;22.83;17.52;;;;;;;;;;5034076;28;20033;-61
2021/09/13 04:20:08;;;;;;;21.80;16.83;;;;;;;;;;5035767;28;20392;-62
2021/09/13 04:22:34;;;;;;;21.23;16.85;;;;;;;;;;5035478;28;20108;-62
2021/09/13 04:25:00;;;;;;;23.23;17.55;;;;;;;;;;5034198;28;20101;-62
2021/09/13 04:27:27;;;;;;;22.75;17.90;;;;;;;;;;5034001;28;20056;-61
2021/09/13 04:29:53;;;;;;;22.38;17.13;;;;;;;;;;5034838;28;20051;-61
2021/09/13 04:32:19;;;;;;;18.73;16.15;;;;;;;;;;5035129;28;20393;-61
2021/09/13 04:34:45;;;;;;;20.58;16.98;;;;;;;;;;5035573;28;20057;-61
2021/09/13 04:37:11;;;;;;;20.00;15.52;;;;;;;;;;5035337;28;20026;-62
2021/09/13 04:39:37;;;;;;;23.98;18.38;;;;;;;;;;5032907;28;20377;-61
2021/09/13 04:42:03;;;;;;;25.60;19.08;;;;;;;;;;5035219;28;20033;-61
2021/09/13 04:44:29;;;;;;;23.15;17.60;;;;;;;;;;5033683;28;20475;-61
2021/09/13 04:46:55;;;;;;;22.45;17.33;;;;;;;;;;5034831;28;20029;-61
2021/09/13 04:49:24;;;;;;;21.33;17.30;;;;;;;;;;5035126;28;20037;-61
2021/09/13 04:51:50;;;;;;;22.67;17.23;;;;;;;;;;5032990;28;20051;-61
2021/09/13 04:54:16;;;;;;;22.30;17.23;;;;;;;;;;5034714;28;20392;-62
2021/09/13 04:56:42;;;;;;;23.63;17.30;;;;;;;;;;5033415;28;20021;-62
2021/09/13 04:59:11;;;;;;;20.45;16.35;;;;;;;;;;5034964;28;20036;-61
2021/09/13 05:01:38;;;;;;;23.38;18.00;;;;;;;;;;5034680;28;20071;-62
2021/09/13 05:04:04;;;;;;;24.33;18.17;;;;;;;;;;5034383;28;20017;-61
2021/09/13 05:06:30;;;;;;;22.67;17.77;;;;;;;;;;5033315;28;20017;-61
2021/09/13 05:08:56;;;;;;;23.38;18.55;;;;;;;;;;5033866;28;20049;-61
2021/09/13 05:11:22;;;;;;;24.60;19.00;;;;;;;;;;5034512;28;20028;-61
2021/09/13 05:13:51;;;;;;;22.23;18.20;;;;;;;;;;5034585;28;20389;-61
2021/09/13 05:16:16;;;;;;;;;;;;;;;;;;5035274;28;20055;-61
2021/09/13 05:18:45;;;;;;;19.90;16.17;;;;;;;;;;5030791;28;19905;-60
2021/09/13 05:21:10;;;;;;;;;;;;;;;;;;5033508;28;20021;-61
2021/09/13 05:23:37;;;;;;;20.48;16.42;;;;;;;;;;5033158;28;20414;-61
2021/09/13 05:26:02;;;;;;;22.60;17.35;;;;;;;;;;5034284;28;20079;-61
2021/09/13 05:28:28;;;;;;;22.20;17.55;;;;;;;;;;5032466;28;20058;-62
2021/09/13 05:30:54;;;;;;;21.48;17.73;;;;;;;;;;5032726;28;20039;-61
2021/09/13 05:33:20;;;;;;;23.55;17.77;;;;;;;;;;5032240;28;20563;-61
2021/09/13 05:35:46;;;;;;;22.45;18.02;;;;;;;;;;5032608;28;20026;-61
2021/09/13 05:38:12;;;;;;;22.35;16.40;;;;;;;;;;5032800;28;20029;-61
2021/09/13 05:40:43;;;;;;;22.42;17.77;;;;;;;;;;5032560;28;20034;-62
2021/09/13 05:43:09;;;;;;;23.38;16.17;;;;;;;;;;5018491;28;20022;-61
2021/09/13 05:45:35;;;;;;;20.35;16.20;;;;;;;;;;5027784;28;20036;-61
2021/09/13 05:48:02;;;;;;;22.08;15.23;;;;;;;;;;5032215;28;20156;-61
2021/09/13 05:50:28;;;;;;;17.95;15.13;;;;;;;;;;5032481;28;20033;-62
2021/09/13 05:52:54;;;;;;;19.98;15.60;;;;;;;;;;5032651;28;20041;-62
2021/09/13 05:55:21;;;;;;;21.60;16.42;;;;;;;;;;5031125;28;20060;-62
2021/09/13 05:57:47;;;;;;;21.10;16.10;;;;;;;;;;5031391;28;20010;-60
2021/09/13 06:00:13;;;;;;;19.50;16.23;;;;;;;;;;5031885;28;20025;-61
2021/09/13 06:02:39;;;;;;;19.80;15.48;;;;;;;;;;5030671;28;20444;-60
2021/09/13 06:05:05;;;;;;;19.15;14.52;;;;;;;;;;5031757;28;20040;-60
2021/09/13 06:07:31;;;;;;;18.73;15.27;;;;;;;;;;5031479;28;20076;-61
2021/09/13 06:09:57;;;;;;;17.80;14.73;;;;;;;;;;5031548;28;20029;-60
2021/09/13 06:12:23;;;;;;;23.15;14.13;;;;;;;;;;5031354;28;20017;-60
2021/09/13 06:14:51;;;;;;;19.10;14.45;;;;;;;;;;5032008;28;20033;-60
2021/09/13 06:17:17;;;;;;;19.27;14.63;;;;;;;;;;5031785;28;20025;-60
2021/09/13 06:19:43;;;;;;;20.83;15.32;;;;;;;;;;5031403;28;20025;-61
2021/09/13 06:22:09;;;;;;;19.75;15.25;;;;;;;;;;5031761;28;20029;-61
2021/09/13 06:24:39;;;;;;;21.10;15.23;;;;;;;;;;5029543;28;20083;-61
2021/09/13 06:27:05;;;;;;;17.65;13.88;;;;;;;;;;5034061;28;20029;-61
2021/09/13 06:29:31;;;;;;;20.50;13.35;;;;;;;;;;5033596;28;20512;-61
2021/09/13 06:31:57;;;;;;;22.13;11.85;;;;;;;;;;5033326;28;20040;-61
2021/09/13 06:34:23;;;;;;;15.48;11.68;;;;;;;;;;5033403;28;20175;-61
2021/09/13 06:36:49;;;;;;;13.90;11.07;;;;;;;;;;5031633;28;20061;-61
2021/09/13 06:39:15;;;;;;;16.13;10.57;;;;;;;;;;5035057;28;20391;-61
2021/09/13 06:41:41;;;;;;;12.25;9.70;;;;;;;;;;5036304;28;20037;-61
2021/09/13 06:44:07;;;;;;;13.57;9.80;;;;;;;;;;5037131;28;20151;-60
2021/09/13 06:49:06;;;;;;;12.35;9.40;;;;;;;;;;5037081;28;20064;-61
2021/09/13 06:51:33;;;;;;;10.85;8.82;;;;;;;;;;5035297;28;20029;-61
2021/09/13 06:53:59;;;;;;;11.00;9.07;;;;;;;;;;5036036;28;20453;-64
2021/09/13 06:56:25;;;;;;;12.80;10.00;;;;;;;;;;5037297;28;20123;-61
2021/09/13 06:58:52;;;;;;;10.73;9.63;;;;;;;;;;5037131;28;20112;-61
2021/09/13 07:01:21;;;;;;;16.10;9.87;;;;;;;;;;5036488;28;20071;-61
2021/09/13 07:03:48;;;;;;;10.50;8.63;;;;;;;;;;5035206;28;20028;-61
2021/09/13 07:06:14;;;;;;;12.80;8.48;;;;;;;;;;5037199;28;20412;-60
2021/09/13 07:08:40;;;;;;;11.18;8.77;;;;;;;;;;5036954;28;20040;-61
2021/09/13 07:11:06;;;;;;;12.38;9.18;;;;;;;;;;5036291;28;20037;-61
2021/09/13 07:13:32;;;;;;;11.03;8.50;;;;;;;;;;5037040;28;20024;-61
2021/09/13 07:15:58;;;;;;;12.38;8.65;;;;;;;;;;5035383;28;20476;-61
2021/09/13 07:18:27;;;;;;;10.00;8.15;;;;;;;;;;5034774;28;20053;-61
2021/09/13 07:20:53;;;;;;;14.63;8.38;;;;;;;;;;5034678;28;20029;-61
2021/09/13 07:23:19;;;;;;;15.43;8.00;;;;;;;;;;5036535;28;20033;-61
2021/09/13 07:25:45;;;;;;;11.25;8.18;;;;;;;;;;5036335;28;20499;-61
2021/09/13 07:28:11;;;;;;;10.70;8.05;;;;;;;;;;5036590;28;20075;-61
2021/09/13 07:30:37;;;;;;;10.43;8.32;;;;;;;;;;5033908;28;20095;-61
2021/09/13 07:33:03;;;;;;;13.00;8.07;;;;;;;;;;5035174;28;20385;-61
2021/09/13 07:35:29;;;;;;;9.45;8.32;;;;;;;;;;5036414;28;20028;-61
2021/09/13 07:37:55;;;;;;;12.00;8.73;;;;;;;;;;5035970;28;20585;-61
2021/09/13 07:40:22;;;;;;;9.75;8.05;;;;;;;;;;5035100;28;20100;-61
2021/09/13 07:42:48;;;;;;;11.30;7.70;;;;;;;;;;5033569;28;20016;-61
2021/09/13 07:45:14;;;;;;;10.50;8.13;;;;;;;;;;5036380;28;20075;-61
2021/09/13 07:47:40;;;;;;;9.05;7.93;;;;;;;;;;5036067;28;20026;-61
2021/09/13 07:50:06;;;;;;;12.02;8.27;;;;;;;;;;5034576;28;20120;-61
2021/09/13 07:52:32;;;;;;;10.60;8.32;;;;;;;;;;5035541;28;20496;-61
2021/09/13 07:54:58;;;;;;;11.73;8.48;;;;;;;;;;5034731;28;20041;-61
2021/09/13 07:57:24;;;;;;;13.05;9.07;;;;;;;;;;5035590;28;20029;-61
2021/09/13 07:59:50;;;;;;;11.82;8.75;;;;;;;;;;5036186;28;20029;-61
2021/09/13 08:02:17;;;;;;;10.25;8.02;;;;;;;;;;5036078;28;20025;-61
2021/09/13 08:04:43;;;;;;;11.85;8.95;;;;;;;;;;5035332;28;20068;-61
2021/09/13 08:07:09;;;;;;;14.98;8.70;;;;;;;;;;5035741;28;20053;-61
2021/09/13 08:09:34;;;;;;;14.77;8.77;;;;;;;;;;5033970;28;20405;-61
2021/09/13 08:12:01;;;;;;;12.32;8.48;;;;;;;;;;5044818;28;20029;-61
2021/09/13 08:14:27;;;;;;;8.85;7.80;;;;;;;;;;5040797;28;20075;-61
2021/09/13 08:16:53;;;;;;;10.48;8.27;;;;;;;;;;5035939;28;20029;-61
2021/09/13 08:19:19;;;;;;;9.55;7.68;;;;;;;;;;5035175;28;20020;-61
2021/09/13 08:21:45;;;;;;;9.52;7.85;;;;;;;;;;5033565;28;20025;-61
2021/09/13 08:24:11;;;;;;;12.50;8.18;;;;;;;;;;5034707;28;20092;-61
2021/09/13 08:26:39;;;;;;;11.90;8.25;;;;;;;;;;5034788;28;20029;-61
2021/09/13 08:29:06;;;;;;;;;;;;;;;;;;5035387;28;20042;-59
2021/09/13 08:31:32;;;;;;;10.20;7.55;;;;;;;;;;5035664;28;19909;-61
2021/09/13 08:33:58;;;;;;;10.23;8.15;;;;;;;;;;5033426;28;20029;-61
2021/09/13 08:36:24;;;;;;;10.90;8.18;;;;;;;;;;5034458;28;20519;-61
2021/09/13 08:38:50;;;;;;;12.65;8.15;;;;;;;;;;5033087;28;20383;-61
2021/09/13 08:41:16;;;;;;;11.20;8.20;;;;;;;;;;5035164;28;20033;-61
2021/09/13 08:43:42;;;;;;;9.63;8.05;;;;;;;;;;5035096;28;20048;-61
2021/09/13 08:46:13;;;;;;;8.93;7.33;;;;;;;;;;5035058;28;20100;-61
2021/09/13 08:48:46;;;;;;;10.15;7.90;;;;;;;;;;5032287;28;20025;-61
2021/09/13 08:53:42;;;;;;;11.40;8.35;;;;;;;;;;5035188;28;20041;-65
2021/09/13 08:56:14;;;;;;;9.88;8.25;;;;;;;;;;5035032;28;20025;-61
2021/09/13 08:58:40;;;;;;;11.55;9.20;;;;;;;;;;5035151;28;20029;-61
2021/09/13 09:01:07;;;;;;;10.20;9.05;;;;;;;;;;5018825;28;20392;-60
2021/09/13 09:03:35;;;;;;;10.85;8.82;;;;;;;;;;5031910;28;20167;-61
2021/09/13 09:06:02;;;;;;;12.48;9.05;;;;;;;;;;5034827;28;20025;-61
2021/09/13 09:08:29;;;;;;;10.70;9.40;;;;;;;;;;5034949;28;20123;-61
2021/09/13 09:10:56;;;;;;;12.60;8.70;;;;;;;;;;5034749;28;20075;-61
2021/09/13 09:13:23;;;;;;;10.70;8.93;;;;;;;;;;5034899;28;20021;-61
2021/09/13 09:16:02;;;;;;;11.20;9.13;;;;;;;;;;5032776;28;20396;-61
2021/09/13 09:18:42;;;;;;;12.50;9.15;;;;;;;;;;5032237;28;20017;-61
2021/09/13 09:21:09;;;;;;;10.35;8.88;;;;;;;;;;5033139;28;20053;-61
2021/09/13 09:23:57;;;;;;;12.80;9.00;;;;;;;;;;5034538;28;20071;-61
2021/09/13 09:26:23;;;;;;;14.10;8.90;;;;;;;;;;5034127;28;20485;-61
2021/09/13 09:28:50;;;;;;;12.63;9.07;;;;;;;;;;5032970;28;20527;-61
2021/09/13 09:31:33;;;;;;;13.02;9.55;;;;;;;;;;5034697;28;20147;-61
2021/09/13 09:34:10;;;;;;;13.38;9.63;;;;;;;;;;5032524;28;20034;-61
2021/09/13 09:36:36;;;;;;;12.10;9.80;;;;;;;;;;5028236;28;20084;-63
2021/09/13 09:39:10;;;;;;;15.00;10.02;;;;;;;;;;5033795;28;20453;-67
2021/09/13 09:41:41;;;;;;;11.88;9.10;;;;;;;;;;5032761;28;20053;-67
2021/09/13 09:44:07;;;;;;;12.68;9.57;;;;;;;;;;5032362;28;20536;-67
2021/09/13 09:46:37;;;;;;;13.70;9.07;;;;;;;;;;5032185;28;20096;-67
2021/09/13 09:49:04;;;;;;;11.85;8.77;;;;;;;;;;5032554;28;20481;-68
2021/09/13 09:51:35;;;;;;;11.35;8.95;;;;;;;;;;5032056;28;20034;-68
2021/09/13 09:54:09;;;;;;;11.02;8.90;;;;;;;;;;5032695;28;20067;-68
2021/09/13 09:56:35;;;;;;;10.65;8.48;;;;;;;;;;5035580;28;20036;-67
2021/09/13 09:59:03;;;;;;;16.00;10.05;;;;;;;;;;5033866;28;20064;-67
2021/09/13 10:01:50;;;;;;;11.18;8.77;;;;;;;;;;5031723;28;20029;-67
2021/09/13 10:04:23;;;;;;;11.00;9.30;;;;;;;;;;5022430;28;20096;-59
2021/09/13 10:06:53;;;;;;;13.10;9.00;;;;;;;;;;5032230;28;20021;-52
2021/09/13 10:09:20;;;;;;;12.10;9.13;;;;;;;;;;5029623;28;20440;-51
2021/09/13 10:11:47;;;;;;;10.52;8.60;;;;;;;;;;5032731;28;20022;-49
2021/09/13 10:14:15;;;;;;;14.85;9.32;;;;;;;;;;5035265;28;20074;-51
2021/09/13 10:16:42;;;;;;;12.95;9.45;;;;;;;;;;5037675;28;20037;-52
2021/09/13 10:19:08;;;;;;;12.50;9.40;;;;;;;;;;5022051;28;20095;-51
2021/09/13 10:21:34;;;;;;;11.70;9.40;;;;;;;;;;5035389;28;20051;-66
2021/09/13 10:24:05;;;;;;;10.93;9.82;;;;;;;;;;5037960;28;20041;-63
2021/09/13 10:26:31;;;;;;;11.32;9.43;;;;;;;;;;5033988;28;20116;-66
2021/09/13 10:29:03;;;;;;;11.10;9.23;;;;;;;;;;5036183;28;20514;-66
2021/09/13 10:31:41;;;;;;;11.52;9.05;;;;;;;;;;5035463;28;20033;-65
2021/09/13 10:34:24;;;;;;;13.23;9.68;;;;;;;;;;5015545;28;20115;-66
2021/09/13 10:37:00;;;;;;;11.20;9.95;;;;;;;;;;5051248;28;20460;-66
2021/09/13 10:39:45;;;;;;;13.00;9.70;;;;;;;;;;5033481;28;20069;-66
2021/09/13 10:42:11;;;;;;;11.63;9.85;;;;;;;;;;5037485;28;20026;-66
2021/09/13 10:44:37;;;;;;;15.13;10.00;;;;;;;;;;5035853;28;20029;-66
2021/09/13 10:47:04;;;;;;;13.40;10.30;;;;;;;;;;5037202;28;20034;-67
2021/09/13 10:49:30;;;;;;;12.57;10.05;;;;;;;;;;5035876;28;20045;-67
2021/09/13 10:52:20;;;;;;;12.27;10.50;;;;;;;;;;5033409;28;20032;-67
2021/09/13 10:55:04;;;;;;;14.60;11.00;;;;;;;;;;5027361;28;20053;-68
2021/09/13 10:57:49;;;;;;;13.65;11.10;;;;;;;;;;5044381;28;20041;-68
2021/09/13 11:00:15;;;;;;;13.57;11.38;;;;;;;;;;5018324;28;20029;-65
2021/09/13 11:02:41;;;;;;;13.98;11.68;;;;;;;;;;5033469;28;20049;-66
2021/09/13 11:05:20;;;;;;;18.42;11.52;;;;;;;;;;5036917;28;20032;-66
2021/09/13 11:08:05;;;;;;;14.45;12.00;;;;;;;;;;5040342;28;20560;-66
2021/09/13 11:10:46;;;;;;;17.30;13.18;;;;;;;;;;5027947;28;20355;-67
2021/09/13 11:13:12;;;;;;;15.48;12.25;;;;;;;;;;5024956;28;20095;-67
2021/09/13 11:15:38;;;;;;;15.70;11.30;;;;;;;;;;5024956;28;20022;-66
2021/09/13 11:18:04;;;;;;;13.95;11.80;;;;;;;;;;5034313;28;20508;-66
2021/09/13 11:20:30;;;;;;;17.52;13.15;;;;;;;;;;5039452;28;20025;-66
2021/09/13 11:22:56;;;;;;;15.85;12.82;;;;;;;;;;5045459;28;20521;-66
2021/09/13 11:25:22;;;;;;;13.60;11.77;;;;;;;;;;5031581;28;20018;-67
2021/09/13 11:28:01;;;;;;;15.63;12.52;;;;;;;;;;5032602;28;20076;-66
2021/09/13 11:30:43;;;;;;;15.13;13.60;;;;;;;;;;5032952;28;20038;-67
2021/09/13 11:33:09;;;;;;;16.33;13.00;;;;;;;;;;5036111;28;20041;-67
2021/09/13 11:35:36;;;;;;;13.93;12.10;;;;;;;;;;5046270;28;20036;-68
2021/09/13 11:38:02;;;;;;;17.03;12.43;;;;;;;;;;5039618;28;20033;-69
2021/09/13 11:40:28;;;;;;;16.13;12.43;;;;;;;;;;5036462;28;20027;-68
2021/09/13 11:42:54;;;;;;;16.85;13.18;;;;;;;;;;5034120;28;20022;-68
2021/09/13 11:45:20;;;;;;;13.77;12.00;;;;;;;;;;5044372;28;20032;-67
2021/09/13 11:47:45;;;;;;;15.82;13.07;;;;;;;;;;5038248;28;20097;-68
2021/09/13 11:50:12;;;;;;;17.40;13.77;;;;;;;;;;5035115;28;20037;-67
2021/09/13 11:52:39;;;;;;;19.25;12.77;;;;;;;;;;5036099;28;20032;-68
2021/09/13 11:55:07;;;;;;;18.60;15.37;;;;;;;;;;5049561;28;20108;-66
2021/09/13 11:57:35;;;;;;;14.68;12.07;;;;;;;;;;5037241;28;20246;-66
2021/09/13 12:00:04;;;;;;;19.67;15.48;;;;;;;;;;5044042;28;20417;-71
2021/09/13 12:02:30;;;;;;;18.05;14.40;;;;;;;;;;5035340;28;20085;-71
2021/09/13 12:04:58;;;;;;;18.55;15.38;;;;;;;;;;5040255;28;20473;-70
2021/09/13 12:07:24;;;;;;;18.70;14.80;;;;;;;;;;5035306;28;20108;-70
2021/09/13 12:09:50;;;;;;;18.50;15.27;;;;;;;;;;5034075;28;20055;-70
2021/09/13 12:12:21;;;;;;;19.70;14.40;;;;;;;;;;5035427;28;20532;-71
2021/09/13 12:14:47;;;;;;;19.42;13.93;;;;;;;;;;5035381;28;20481;-71
2021/09/13 12:17:18;;;;;;;17.73;14.52;;;;;;;;;;5035517;28;20033;-71
2021/09/13 12:19:45;;;;;;;17.50;13.50;;;;;;;;;;5035831;28;20079;-71
2021/09/13 12:22:12;;;;;;;17.20;14.35;;;;;;;;;;5035924;28;20025;-71
2021/09/13 12:24:39;;;;;;;18.63;14.65;;;;;;;;;;5033448;28;20026;-70
2021/09/13 12:27:12;;;;;;;17.02;13.05;;;;;;;;;;5035255;28;20071;-71
2021/09/13 12:30:05;;;;;;;16.10;13.75;;;;;;;;;;5035463;28;20045;-70
2021/09/13 12:32:35;;;;;;;22.38;15.20;;;;;;;;;;5034035;28;20493;-70
2021/09/13 12:35:06;;;;;;;19.27;13.38;;;;;;;;;;5035099;28;20068;-70
2021/09/13 12:37:36;;;;;;;18.60;14.07;;;;;;;;;;5034943;28;20129;-70
2021/09/13 12:40:13;;;;;;;17.65;14.55;;;;;;;;;;5034148;28;20013;-70
2021/09/13 12:42:54;;;;;;;16.13;13.02;;;;;;;;;;5029209;28;20041;-70
2021/09/13 12:45:23;;;;;;;14.98;13.38;;;;;;;;;;5030874;28;20026;-71
2021/09/13 12:47:55;;;;;;;17.95;13.90;;;;;;;;;;5035190;28;20481;-70
2021/09/13 12:50:29;;;;;;;15.25;13.60;;;;;;;;;;5035282;28;20148;-71
2021/09/13 12:52:56;;;;;;;17.25;13.00;;;;;;;;;;5035012;28;20028;-71
2021/09/13 12:55:22;;;;;;;16.95;14.27;;;;;;;;;;5035077;28;20029;-71
2021/09/13 12:57:48;;;;;;;18.27;13.40;;;;;;;;;;5033042;28;20053;-71
2021/09/13 13:00:15;;;;;;;17.70;13.95;;;;;;;;;;5034696;28;20026;-71
2021/09/13 13:02:43;;;;;;;15.88;13.65;;;;;;;;;;5034661;28;20029;-71
2021/09/13 13:05:28;;;;;;;17.08;13.52;;;;;;;;;;5039945;28;20112;-70
2021/09/13 13:07:54;;;;;;;17.42;14.10;;;;;;;;;;5034706;28;20045;-71
2021/09/13 13:10:20;;;;;;;14.90;13.05;;;;;;;;;;5033201;28;20079;-69
2021/09/13 13:12:46;;;;;;;20.38;13.52;;;;;;;;;;5032259;28;20032;-70
2021/09/13 13:15:15;;;;;;;15.98;14.15;;;;;;;;;;5034920;28;20026;-69
2021/09/13 13:17:41;;;;;;;16.10;13.35;;;;;;;;;;5034319;28;20009;-69
2021/09/13 13:20:08;;;;;;;15.90;13.45;;;;;;;;;;5034280;28;20033;-70
2021/09/13 13:22:34;;;;;;;17.88;13.88;;;;;;;;;;5033332;28;20025;-70
2021/09/13 13:25:00;;;;;;;14.85;12.88;;;;;;;;;;5032466;28;20042;-70
2021/09/13 13:27:26;;;;;;;17.85;14.25;;;;;;;;;;5031514;28;20086;-69
2021/09/13 13:29:52;;;;;;;17.60;14.73;;;;;;;;;;5032132;28;20473;-69
2021/09/13 13:32:18;;;;;;;16.65;13.77;;;;;;;;;;5032563;28;20032;-70
2021/09/13 13:34:44;;;;;;;17.40;14.48;;;;;;;;;;5012991;28;20033;-69
2021/09/13 13:37:11;;;;;;;16.75;13.95;;;;;;;;;;5024849;28;20056;-69
2021/09/13 13:39:37;;;;;;;19.50;14.52;;;;;;;;;;5029597;28;20126;-69
2021/09/13 13:42:03;;;;;;;17.48;15.13;;;;;;;;;;5031390;28;20055;-69
2021/09/13 13:44:29;;;;;;;16.80;13.77;;;;;;;;;;5031788;28;20492;-69
2021/09/13 13:46:55;;;;;;;21.70;13.43;;;;;;;;;;5033817;28;20037;-69
2021/09/13 13:49:21;;;;;;;16.00;13.27;;;;;;;;;;5030185;28;20025;-69
2021/09/13 13:51:47;;;;;;;19.27;13.48;;;;;;;;;;5031255;28;20031;-69
2021/09/13 13:54:13;;;;;;;17.35;13.98;;;;;;;;;;5029483;28;20413;-70
2021/09/13 13:56:39;;;;;;;16.75;13.88;;;;;;;;;;5032976;28;20029;-69
2021/09/13 13:59:05;;;;;;;18.05;13.40;;;;;;;;;;5033467;28;20385;-69
2021/09/13 14:01:33;;;;;;;18.80;13.82;;;;;;;;;;5031594;28;20072;-69
2021/09/13 14:03:59;;;;;;;16.00;12.93;;;;;;;;;;5037380;28;25258;-69
2021/09/13 14:06:25;;;;;;;15.20;13.60;;;;;;;;;;5032811;28;20033;-69
2021/09/13 14:08:51;;;;;;;15.98;14.07;;;;;;;;;;5032626;28;20033;-69
2021/09/13 14:11:17;;;;;;;15.77;13.05;;;;;;;;;;5033067;28;20064;-69
2021/09/13 14:13:43;;;;;;;18.13;13.82;;;;;;;;;;5037564;28;20061;-69
2021/09/13 14:16:09;;;;;;;15.63;13.32;;;;;;;;;;5031499;28;20026;-70
2021/09/13 14:18:35;;;;;;;16.02;13.88;;;;;;;;;;5026925;28;20025;-69
2021/09/13 14:21:01;;;;;;;15.95;14.02;;;;;;;;;;5032943;28;20491;-69
2021/09/13 14:23:28;;;;;;;14.98;13.38;;;;;;;;;;5035478;28;20029;-69
2021/09/13 14:25:54;;;;;;;18.85;14.00;;;;;;;;;;5043132;28;20030;-69
2021/09/13 14:28:20;;;;;;;20.13;13.93;;;;;;;;;;5031652;28;20064;-69
2021/09/13 14:30:46;;;;;;;16.65;13.85;;;;;;;;;;5030558;28;20045;-70